sensor_id;sensor_type;location;lat;lon;timestamp;pressure;altitude;pressure_sealevel;temperature;humidity
52489;BME280;38399;52.236;104.280;2022-09-09T00:07:46;96237.28;;;16.99;46.61
52489;BME280;38399;52.236;104.280;2022-09-09T00:10:15;96234.19;;;17.16;46.18
52489;BME280;38399;52.236;104.280;2022-09-09T00:12:51;96233.59;;;17.24;45.66
52489;BME280;38399;52.236;104.280;2022-09-09T00:15:46;96225.91;;;17.32;45.26
52489;BME280;38399;52.236;104.280;2022-09-09T00:18:24;96219.28;;;17.38;44.87
52489;BME280;38399;52.236;104.280;2022-09-09T00:21:09;96221.41;;;17.46;44.41
52489;BME280;38399;52.236;104.280;2022-09-09T00:23:45;96220.25;;;17.57;44.68
52489;BME280;38399;52.236;104.280;2022-09-09T00:26:34;96215.16;;;17.80;44.68
52489;BME280;38399;52.236;104.280;2022-09-09T00:29:40;96231.44;;;18.06;44.11
52489;BME280;38399;52.236;104.280;2022-09-09T00:32:15;96229.09;;;18.24;43.68
52489;BME280;38399;52.236;104.280;2022-09-09T00:34:53;96236.38;;;18.39;43.62
52489;BME280;38399;52.236;104.280;2022-09-09T00:37:22;96235.41;;;18.54;43.54
52489;BME280;38399;52.236;104.280;2022-09-09T00:39:53;96232.28;;;18.65;43.93
52489;BME280;38399;52.236;104.280;2022-09-09T00:44:58;96242.53;;;18.79;44.56
52489;BME280;38399;52.236;104.280;2022-09-09T00:47:50;96235.50;;;18.97;44.68
52489;BME280;38399;52.236;104.280;2022-09-09T00:50:53;96240.16;;;19.21;44.43
52489;BME280;38399;52.236;104.280;2022-09-09T00:53:33;96241.84;;;19.41;44.00
52489;BME280;38399;52.236;104.280;2022-09-09T00:56:16;96239.00;;;19.65;43.94
52489;BME280;38399;52.236;104.280;2022-09-09T01:01:38;96241.00;;;20.17;42.75
52489;BME280;38399;52.236;104.280;2022-09-09T01:04:13;96242.28;;;21.13;41.78
52489;BME280;38399;52.236;104.280;2022-09-09T01:06:45;96233.72;;;23.95;37.16
52489;BME280;38399;52.236;104.280;2022-09-09T01:09:50;96228.25;;;27.23;33.16
52489;BME280;38399;52.236;104.280;2022-09-09T01:12:25;96232.06;;;29.58;29.72
52489;BME280;38399;52.236;104.280;2022-09-09T01:18:12;96232.34;;;32.18;26.77
52489;BME280;38399;52.236;104.280;2022-09-09T01:23:30;96234.41;;;32.21;26.48
52489;BME280;38399;52.236;104.280;2022-09-09T01:26:52;96224.56;;;33.06;26.24
52489;BME280;38399;52.236;104.280;2022-09-09T01:29:26;96227.34;;;34.14;24.29
52489;BME280;38399;52.236;104.280;2022-09-09T01:31:58;96218.69;;;34.55;23.34
52489;BME280;38399;52.236;104.280;2022-09-09T01:34:30;96225.25;;;35.25;22.17
52489;BME280;38399;52.236;104.280;2022-09-09T01:37:10;96224.41;;;35.89;21.96
52489;BME280;38399;52.236;104.280;2022-09-09T01:39:41;96230.25;;;36.60;21.23
52489;BME280;38399;52.236;104.280;2022-09-09T01:42:13;96227.19;;;37.56;20.22
52489;BME280;38399;52.236;104.280;2022-09-09T01:44:41;96215.59;;;38.23;19.35
52489;BME280;38399;52.236;104.280;2022-09-09T01:47:07;96229.97;;;38.71;18.87
52489;BME280;38399;52.236;104.280;2022-09-09T01:49:42;96227.81;;;38.82;18.62
52489;BME280;38399;52.236;104.280;2022-09-09T01:52:17;96220.06;;;39.65;17.89
52489;BME280;38399;52.236;104.280;2022-09-09T01:54:44;96216.66;;;40.78;16.89
52489;BME280;38399;52.236;104.280;2022-09-09T01:57:34;96217.19;;;41.43;17.37
52489;BME280;38399;52.236;104.280;2022-09-09T02:00:10;96229.72;;;41.29;16.13
52489;BME280;38399;52.236;104.280;2022-09-09T02:02:56;96222.75;;;40.76;16.47
52489;BME280;38399;52.236;104.280;2022-09-09T02:05:48;96223.28;;;38.88;18.22
52489;BME280;38399;52.236;104.280;2022-09-09T02:08:33;96230.28;;;38.76;18.40
52489;BME280;38399;52.236;104.280;2022-09-09T02:11:10;96217.53;;;40.14;17.42
52489;BME280;38399;52.236;104.280;2022-09-09T02:13:44;96216.94;;;41.53;16.08
52489;BME280;38399;52.236;104.280;2022-09-09T02:16:21;96215.84;;;42.95;14.88
52489;BME280;38399;52.236;104.280;2022-09-09T02:19:00;96218.63;;;44.20;14.69
52489;BME280;38399;52.236;104.280;2022-09-09T02:21:42;96210.22;;;44.70;13.81
52489;BME280;38399;52.236;104.280;2022-09-09T02:24:10;96213.13;;;45.52;13.68
52489;BME280;38399;52.236;104.280;2022-09-09T02:26:48;96216.56;;;45.97;13.03
52489;BME280;38399;52.236;104.280;2022-09-09T02:29:28;96210.84;;;46.06;12.58
52489;BME280;38399;52.236;104.280;2022-09-09T02:32:00;96208.47;;;46.42;12.61
52489;BME280;38399;52.236;104.280;2022-09-09T02:34:36;96212.91;;;47.14;12.20
52489;BME280;38399;52.236;104.280;2022-09-09T02:37:06;96218.69;;;47.87;12.00
52489;BME280;38399;52.236;104.280;2022-09-09T02:39:34;96212.72;;;47.99;11.79
52489;BME280;38399;52.236;104.280;2022-09-09T02:42:03;96212.53;;;48.03;11.44
52489;BME280;38399;52.236;104.280;2022-09-09T02:44:31;96211.84;;;48.33;11.07
52489;BME280;38399;52.236;104.280;2022-09-09T02:50:13;96206.69;;;48.82;10.57
52489;BME280;38399;52.236;104.280;2022-09-09T02:55:35;96218.81;;;49.01;10.84
52489;BME280;38399;52.236;104.280;2022-09-09T02:58:09;96218.16;;;48.37;10.06
52489;BME280;38399;52.236;104.280;2022-09-09T03:00:38;96209.47;;;48.07;10.81
52489;BME280;38399;52.236;104.280;2022-09-09T03:03:07;96215.00;;;48.35;10.74
52489;BME280;38399;52.236;104.280;2022-09-09T03:05:36;96209.44;;;48.31;10.44
52489;BME280;38399;52.236;104.280;2022-09-09T03:08:04;96206.66;;;48.37;10.52
52489;BME280;38399;52.236;104.280;2022-09-09T03:10:32;96201.97;;;47.85;10.66
52489;BME280;38399;52.236;104.280;2022-09-09T03:12:59;96199.13;;;47.61;10.49
52489;BME280;38399;52.236;104.280;2022-09-09T03:15:29;96188.69;;;47.88;10.40
52489;BME280;38399;52.236;104.280;2022-09-09T03:17:58;96183.88;;;47.69;10.73
52489;BME280;38399;52.236;104.280;2022-09-09T03:20:26;96185.97;;;47.69;10.91
52489;BME280;38399;52.236;104.280;2022-09-09T03:22:53;96182.50;;;46.45;11.05
52489;BME280;38399;52.236;104.280;2022-09-09T03:25:20;96188.88;;;45.16;11.66
52489;BME280;38399;52.236;104.280;2022-09-09T03:27:47;96170.88;;;44.74;11.94
52489;BME280;38399;52.236;104.280;2022-09-09T03:30:13;96173.00;;;44.83;12.04
52489;BME280;38399;52.236;104.280;2022-09-09T03:32:40;96171.91;;;44.90;11.97
52489;BME280;38399;52.236;104.280;2022-09-09T03:35:06;96174.91;;;45.27;11.81
52489;BME280;38399;52.236;104.280;2022-09-09T03:37:33;96186.19;;;46.09;11.57
52489;BME280;38399;52.236;104.280;2022-09-09T03:39:59;96173.50;;;46.81;11.08
52489;BME280;38399;52.236;104.280;2022-09-09T03:42:26;96166.00;;;47.50;10.85
52489;BME280;38399;52.236;104.280;2022-09-09T03:44:54;96168.34;;;48.00;10.77
52489;BME280;38399;52.236;104.280;2022-09-09T03:47:24;96169.75;;;48.20;10.19
52489;BME280;38399;52.236;104.280;2022-09-09T03:49:56;96161.28;;;48.86;10.11
52489;BME280;38399;52.236;104.280;2022-09-09T03:52:22;96154.03;;;48.90;9.90
52489;BME280;38399;52.236;104.280;2022-09-09T03:54:53;96154.25;;;48.27;10.22
52489;BME280;38399;52.236;104.280;2022-09-09T03:57:20;96150.47;;;48.36;10.15
52489;BME280;38399;52.236;104.280;2022-09-09T03:59:48;96147.53;;;48.45;10.21
52489;BME280;38399;52.236;104.280;2022-09-09T04:02:15;96149.69;;;48.65;10.08
52489;BME280;38399;52.236;104.280;2022-09-09T04:04:41;96142.13;;;48.53;10.16
52489;BME280;38399;52.236;104.280;2022-09-09T04:07:07;96138.69;;;48.49;9.96
52489;BME280;38399;52.236;104.280;2022-09-09T04:09:34;96136.00;;;48.15;10.20
52489;BME280;38399;52.236;104.280;2022-09-09T04:12:01;96135.69;;;48.58;10.01
52489;BME280;38399;52.236;104.280;2022-09-09T04:14:29;96127.13;;;49.09;9.80
52489;BME280;38399;52.236;104.280;2022-09-09T04:16:56;96120.44;;;49.17;9.55
52489;BME280;38399;52.236;104.280;2022-09-09T04:19:23;96118.88;;;49.37;9.29
52489;BME280;38399;52.236;104.280;2022-09-09T04:21:49;96117.53;;;49.74;9.30
52489;BME280;38399;52.236;104.280;2022-09-09T04:24:18;96114.72;;;49.59;9.42
52489;BME280;38399;52.236;104.280;2022-09-09T04:26:45;96110.84;;;49.41;9.47
52489;BME280;38399;52.236;104.280;2022-09-09T04:29:12;96106.94;;;49.86;9.14
52489;BME280;38399;52.236;104.280;2022-09-09T04:31:39;96096.09;;;50.27;8.86
52489;BME280;38399;52.236;104.280;2022-09-09T04:34:09;96101.31;;;50.23;8.91
52489;BME280;38399;52.236;104.280;2022-09-09T04:36:35;96082.66;;;50.45;8.74
52489;BME280;38399;52.236;104.280;2022-09-09T04:39:04;96080.50;;;50.72;8.63
52489;BME280;38399;52.236;104.280;2022-09-09T04:41:31;96085.09;;;50.26;8.65
52489;BME280;38399;52.236;104.280;2022-09-09T04:43:58;96067.00;;;49.52;9.03
52489;BME280;38399;52.236;104.280;2022-09-09T04:46:27;96064.84;;;48.40;9.13
52489;BME280;38399;52.236;104.280;2022-09-09T04:48:53;96064.84;;;47.95;9.68
52489;BME280;38399;52.236;104.280;2022-09-09T04:51:22;96054.00;;;47.75;9.47
52489;BME280;38399;52.236;104.280;2022-09-09T04:53:49;96056.22;;;47.95;9.66
52489;BME280;38399;52.236;104.280;2022-09-09T04:56:17;96048.19;;;48.14;9.68
52489;BME280;38399;52.236;104.280;2022-09-09T04:58:51;96048.84;;;47.79;9.42
52489;BME280;38399;52.236;104.280;2022-09-09T05:01:22;96054.22;;;47.86;9.43
52489;BME280;38399;52.236;104.280;2022-09-09T05:03:51;96038.06;;;46.52;9.63
52489;BME280;38399;52.236;104.280;2022-09-09T05:06:22;96026.09;;;44.08;10.76
52489;BME280;38399;52.236;104.280;2022-09-09T05:08:53;96033.31;;;40.73;12.98
52489;BME280;38399;52.236;104.280;2022-09-09T05:11:26;96024.75;;;37.93;14.64
52489;BME280;38399;52.236;104.280;2022-09-09T05:13:58;96020.16;;;35.94;15.92
52489;BME280;38399;52.236;104.280;2022-09-09T05:16:24;96012.41;;;34.55;16.62
52489;BME280;38399;52.236;104.280;2022-09-09T05:18:52;96011.81;;;33.59;17.70
52489;BME280;38399;52.236;104.280;2022-09-09T05:21:22;96009.00;;;32.85;18.41
52489;BME280;38399;52.236;104.280;2022-09-09T05:23:49;96001.19;;;32.15;19.11
52489;BME280;38399;52.236;104.280;2022-09-09T05:26:20;96006.03;;;31.46;19.80
52489;BME280;38399;52.236;104.280;2022-09-09T05:28:49;95993.91;;;30.78;20.81
52489;BME280;38399;52.236;104.280;2022-09-09T05:31:16;95995.22;;;30.10;21.22
52489;BME280;38399;52.236;104.280;2022-09-09T05:33:46;95988.81;;;29.67;21.65
52489;BME280;38399;52.236;104.280;2022-09-09T05:36:16;95990.97;;;29.54;21.66
52489;BME280;38399;52.236;104.280;2022-09-09T05:38:43;95984.59;;;29.54;21.42
52489;BME280;38399;52.236;104.280;2022-09-09T05:41:10;95983.63;;;29.46;21.60
52489;BME280;38399;52.236;104.280;2022-09-09T05:43:37;95976.72;;;29.40;21.70
52489;BME280;38399;52.236;104.280;2022-09-09T05:46:09;95973.09;;;29.19;22.03
52489;BME280;38399;52.236;104.280;2022-09-09T05:48:39;95973.41;;;28.95;22.46
52489;BME280;38399;52.236;104.280;2022-09-09T05:51:09;95967.56;;;28.84;22.19
52489;BME280;38399;52.236;104.280;2022-09-09T05:53:37;95970.19;;;28.77;22.11
52489;BME280;38399;52.236;104.280;2022-09-09T05:56:07;95963.38;;;28.58;21.81
52489;BME280;38399;52.236;104.280;2022-09-09T05:58:36;95955.75;;;28.39;22.65
52489;BME280;38399;52.236;104.280;2022-09-09T06:03:37;95956.59;;;28.39;23.38
52489;BME280;38399;52.236;104.280;2022-09-09T06:06:05;95950.47;;;28.34;23.26
52489;BME280;38399;52.236;104.280;2022-09-09T06:08:37;95946.53;;;28.19;23.41
52489;BME280;38399;52.236;104.280;2022-09-09T06:11:22;95950.56;;;28.05;23.06
52489;BME280;38399;52.236;104.280;2022-09-09T06:13:50;95948.03;;;27.84;23.12
52489;BME280;38399;52.236;104.280;2022-09-09T06:16:24;95949.66;;;27.69;23.38
52489;BME280;38399;52.236;104.280;2022-09-09T06:18:51;95946.03;;;27.53;23.37
52489;BME280;38399;52.236;104.280;2022-09-09T06:21:20;95948.63;;;27.45;23.64
52489;BME280;38399;52.236;104.280;2022-09-09T06:23:48;95937.25;;;27.51;23.80
52489;BME280;38399;52.236;104.280;2022-09-09T06:26:22;95934.91;;;27.53;24.06
52489;BME280;38399;52.236;104.280;2022-09-09T06:28:53;95935.16;;;27.47;24.09
52489;BME280;38399;52.236;104.280;2022-09-09T06:31:24;95935.09;;;27.31;24.31
52489;BME280;38399;52.236;104.280;2022-09-09T06:33:53;95930.13;;;27.25;23.89
52489;BME280;38399;52.236;104.280;2022-09-09T06:36:34;95926.13;;;27.10;23.78
52489;BME280;38399;52.236;104.280;2022-09-09T06:39:01;95930.72;;;27.02;24.47
52489;BME280;38399;52.236;104.280;2022-09-09T06:41:32;95934.59;;;26.85;24.67
52489;BME280;38399;52.236;104.280;2022-09-09T06:44:01;95931.34;;;26.83;24.75
52489;BME280;38399;52.236;104.280;2022-09-09T06:46:36;95926.84;;;26.78;24.49
52489;BME280;38399;52.236;104.280;2022-09-09T06:49:02;95924.38;;;26.77;24.68
52489;BME280;38399;52.236;104.280;2022-09-09T06:51:31;95923.47;;;26.72;24.51
52489;BME280;38399;52.236;104.280;2022-09-09T06:53:59;95917.34;;;26.67;24.64
52489;BME280;38399;52.236;104.280;2022-09-09T06:58:58;95908.47;;;26.49;24.68
52489;BME280;38399;52.236;104.280;2022-09-09T07:01:30;95903.97;;;26.44;24.94
52489;BME280;38399;52.236;104.280;2022-09-09T07:04:00;95903.72;;;26.49;24.88
52489;BME280;38399;52.236;104.280;2022-09-09T07:06:30;95904.16;;;26.64;25.14
52489;BME280;38399;52.236;104.280;2022-09-09T07:09:00;95896.72;;;26.80;25.13
52489;BME280;38399;52.236;104.280;2022-09-09T07:11:30;95893.44;;;26.91;24.64
52489;BME280;38399;52.236;104.280;2022-09-09T07:13:58;95895.25;;;26.99;24.82
52489;BME280;38399;52.236;104.280;2022-09-09T07:16:26;95894.78;;;26.97;25.00
52489;BME280;38399;52.236;104.280;2022-09-09T07:18:55;95897.84;;;26.92;25.28
52489;BME280;38399;52.236;104.280;2022-09-09T07:21:28;95894.13;;;26.87;25.26
52489;BME280;38399;52.236;104.280;2022-09-09T07:23:56;95890.00;;;26.81;25.52
52489;BME280;38399;52.236;104.280;2022-09-09T07:26:28;95888.56;;;26.75;25.34
52489;BME280;38399;52.236;104.280;2022-09-09T07:28:56;95885.94;;;26.79;25.22
52489;BME280;38399;52.236;104.280;2022-09-09T07:31:35;95891.81;;;26.90;25.25
52489;BME280;38399;52.236;104.280;2022-09-09T07:34:04;95870.69;;;27.01;24.80
52489;BME280;38399;52.236;104.280;2022-09-09T07:36:34;95880.13;;;26.84;25.15
52489;BME280;38399;52.236;104.280;2022-09-09T07:39:05;95877.75;;;26.57;25.38
52489;BME280;38399;52.236;104.280;2022-09-09T07:41:38;95874.56;;;26.31;25.46
52489;BME280;38399;52.236;104.280;2022-09-09T07:44:12;95878.78;;;26.12;25.91
52489;BME280;38399;52.236;104.280;2022-09-09T07:46:40;95866.94;;;25.90;26.20
52489;BME280;38399;52.236;104.280;2022-09-09T07:49:09;95877.94;;;25.74;26.38
52489;BME280;38399;52.236;104.280;2022-09-09T07:51:39;95864.63;;;25.68;26.43
52489;BME280;38399;52.236;104.280;2022-09-09T07:54:09;95860.69;;;25.69;26.52
52489;BME280;38399;52.236;104.280;2022-09-09T07:56:41;95859.06;;;25.68;26.71
52489;BME280;38399;52.236;104.280;2022-09-09T07:59:09;95860.69;;;25.69;26.60
52489;BME280;38399;52.236;104.280;2022-09-09T08:01:43;95856.66;;;25.66;26.56
52489;BME280;38399;52.236;104.280;2022-09-09T08:04:16;95852.13;;;25.61;26.54
52489;BME280;38399;52.236;104.280;2022-09-09T08:06:50;95848.31;;;25.54;26.64
52489;BME280;38399;52.236;104.280;2022-09-09T08:09:20;95855.13;;;25.44;26.74
52489;BME280;38399;52.236;104.280;2022-09-09T08:11:48;95848.63;;;25.27;26.90
52489;BME280;38399;52.236;104.280;2022-09-09T08:14:16;95854.44;;;25.13;27.10
52489;BME280;38399;52.236;104.280;2022-09-09T08:16:47;95861.59;;;25.02;27.27
52489;BME280;38399;52.236;104.280;2022-09-09T08:19:17;95868.84;;;24.94;27.54
52489;BME280;38399;52.236;104.280;2022-09-09T08:21:45;95866.06;;;24.94;27.58
52489;BME280;38399;52.236;104.280;2022-09-09T08:24:13;95865.84;;;24.99;27.55
52489;BME280;38399;52.236;104.280;2022-09-09T08:26:48;95862.88;;;25.05;27.67
52489;BME280;38399;52.236;104.280;2022-09-09T08:29:21;95874.44;;;25.07;27.47
52489;BME280;38399;52.236;104.280;2022-09-09T08:31:56;95873.28;;;25.08;27.53
52489;BME280;38399;52.236;104.280;2022-09-09T08:34:24;95870.38;;;25.04;27.57
52489;BME280;38399;52.236;104.280;2022-09-09T08:36:53;95870.66;;;24.90;27.30
52489;BME280;38399;52.236;104.280;2022-09-09T08:39:26;95877.94;;;24.82;27.45
52489;BME280;38399;52.236;104.280;2022-09-09T08:47:45;95876.50;;;24.55;27.89
52489;BME280;38399;52.236;104.280;2022-09-09T08:53:04;95872.47;;;24.52;28.43
52489;BME280;38399;52.236;104.280;2022-09-09T08:55:44;95884.88;;;24.25;28.69
52489;BME280;38399;52.236;104.280;2022-09-09T08:58:16;95881.06;;;24.08;28.87
52489;BME280;38399;52.236;104.280;2022-09-09T09:06:05;95886.94;;;23.68;29.51
52489;BME280;38399;52.236;104.280;2022-09-09T09:08:43;95880.78;;;23.62;29.77
52489;BME280;38399;52.236;104.280;2022-09-09T09:11:12;95884.09;;;23.47;29.59
52489;BME280;38399;52.236;104.280;2022-09-09T09:13:54;95877.47;;;23.30;30.04
52489;BME280;38399;52.236;104.280;2022-09-09T09:19:14;95887.94;;;23.07;29.87
52489;BME280;38399;52.236;104.280;2022-09-09T09:21:48;95887.94;;;23.07;30.26
52489;BME280;38399;52.236;104.280;2022-09-09T09:27:12;95900.47;;;22.78;30.44
52489;BME280;38399;52.236;104.280;2022-09-09T09:29:43;95899.19;;;22.67;30.85
52489;BME280;38399;52.236;104.280;2022-09-09T09:32:14;95905.03;;;22.57;31.18
52489;BME280;38399;52.236;104.280;2022-09-09T09:34:49;95910.56;;;22.48;31.26
52489;BME280;38399;52.236;104.280;2022-09-09T09:37:19;95919.16;;;22.37;31.73
52489;BME280;38399;52.236;104.280;2022-09-09T09:39:50;95930.66;;;22.31;32.02
52489;BME280;38399;52.236;104.280;2022-09-09T09:42:17;95929.16;;;22.24;32.19
52489;BME280;38399;52.236;104.280;2022-09-09T09:44:47;95934.06;;;22.19;31.94
52489;BME280;38399;52.236;104.280;2022-09-09T09:47:22;95948.78;;;22.14;31.58
52489;BME280;38399;52.236;104.280;2022-09-09T09:50:19;95943.94;;;22.11;31.13
52489;BME280;38399;52.236;104.280;2022-09-09T09:52:57;95953.31;;;22.01;30.97
52489;BME280;38399;52.236;104.280;2022-09-09T09:55:28;95961.25;;;21.94;30.30
52489;BME280;38399;52.236;104.280;2022-09-09T09:58:15;95957.97;;;21.83;30.18
52489;BME280;38399;52.236;104.280;2022-09-09T10:00:49;95979.00;;;21.70;29.60
52489;BME280;38399;52.236;104.280;2022-09-09T10:03:26;95973.25;;;21.58;29.28
52489;BME280;38399;52.236;104.280;2022-09-09T10:05:54;95979.03;;;21.48;29.26
52489;BME280;38399;52.236;104.280;2022-09-09T10:08:23;95980.59;;;21.40;29.48
52489;BME280;38399;52.236;104.280;2022-09-09T10:19:34;96011.00;;;21.26;28.94
52489;BME280;38399;52.236;104.280;2022-09-09T10:30:30;96029.16;;;21.04;33.11
52489;BME280;38399;52.236;104.280;2022-09-09T10:33:10;96031.53;;;20.97;34.55
52489;BME280;38399;52.236;104.280;2022-09-09T10:36:10;96029.94;;;20.82;35.41
52489;BME280;38399;52.236;104.280;2022-09-09T10:38:42;96041.06;;;20.63;36.22
52489;BME280;38399;52.236;104.280;2022-09-09T10:44:02;96055.03;;;20.38;36.93
52489;BME280;38399;52.236;104.280;2022-09-09T10:52:33;96083.59;;;20.01;37.88
52489;BME280;38399;52.236;104.280;2022-09-09T10:55:10;96085.69;;;19.90;38.24
52489;BME280;38399;52.236;104.280;2022-09-09T11:00:13;96094.91;;;19.66;39.03
52489;BME280;38399;52.236;104.280;2022-09-09T11:02:41;96116.75;;;19.57;39.57
52489;BME280;38399;52.236;104.280;2022-09-09T11:07:48;96130.53;;;19.38;39.53
52489;BME280;38399;52.236;104.280;2022-09-09T11:10:23;96140.47;;;19.34;39.89
52489;BME280;38399;52.236;104.280;2022-09-09T11:12:54;96149.63;;;19.29;40.10
52489;BME280;38399;52.236;104.280;2022-09-09T11:15:40;96153.78;;;19.27;40.12
52489;BME280;38399;52.236;104.280;2022-09-09T11:18:12;96162.41;;;19.20;40.56
52489;BME280;38399;52.236;104.280;2022-09-09T11:20:40;96170.47;;;19.11;40.39
52489;BME280;38399;52.236;104.280;2022-09-09T11:23:20;96188.16;;;19.05;40.66
52489;BME280;38399;52.236;104.280;2022-09-09T11:25:59;96187.69;;;18.98;40.58
52489;BME280;38399;52.236;104.280;2022-09-09T11:35:01;96221.91;;;18.81;40.96
52489;BME280;38399;52.236;104.280;2022-09-09T11:37:49;96219.53;;;18.75;40.93
52489;BME280;38399;52.236;104.280;2022-09-09T11:40:25;96239.75;;;18.60;40.51
52489;BME280;38399;52.236;104.280;2022-09-09T11:43:04;96237.97;;;18.45;40.78
52489;BME280;38399;52.236;104.280;2022-09-09T11:45:34;96239.94;;;18.39;40.28
52489;BME280;38399;52.236;104.280;2022-09-09T11:48:03;96256.53;;;18.24;40.73
52489;BME280;38399;52.236;104.280;2022-09-09T11:50:32;96262.63;;;18.15;40.77
52489;BME280;38399;52.236;104.280;2022-09-09T11:53:28;96269.47;;;18.18;40.67
52489;BME280;38399;52.236;104.280;2022-09-09T11:56:12;96284.09;;;18.08;40.36
52489;BME280;38399;52.236;104.280;2022-09-09T11:58:44;96283.06;;;17.99;40.73
52489;BME280;38399;52.236;104.280;2022-09-09T12:01:40;96287.47;;;18.00;40.85
52489;BME280;38399;52.236;104.280;2022-09-09T12:09:52;96335.38;;;17.63;41.24
52489;BME280;38399;52.236;104.280;2022-09-09T12:12:25;96361.69;;;17.58;41.57
52489;BME280;38399;52.236;104.280;2022-09-09T12:17:25;96357.41;;;17.37;41.58
52489;BME280;38399;52.236;104.280;2022-09-09T12:28:46;96364.88;;;17.10;41.64
52489;BME280;38399;52.236;104.280;2022-09-09T12:33:45;96376.94;;;17.04;41.83
52489;BME280;38399;52.236;104.280;2022-09-09T12:36:28;96379.72;;;16.99;41.83
52489;BME280;38399;52.236;104.280;2022-09-09T12:38:59;96381.06;;;16.96;41.96
52489;BME280;38399;52.236;104.280;2022-09-09T12:41:36;96379.97;;;16.98;42.20
52489;BME280;38399;52.236;104.280;2022-09-09T12:44:09;96379.41;;;16.95;42.67
52489;BME280;38399;52.236;104.280;2022-09-09T12:46:39;96369.59;;;16.94;43.43
52489;BME280;38399;52.236;104.280;2022-09-09T12:49:26;96381.03;;;16.86;43.93
52489;BME280;38399;52.236;104.280;2022-09-09T12:51:54;96390.09;;;16.81;44.54
52489;BME280;38399;52.236;104.280;2022-09-09T12:54:23;96402.69;;;16.77;45.02
52489;BME280;38399;52.236;104.280;2022-09-09T12:56:49;96402.69;;;16.72;45.49
52489;BME280;38399;52.236;104.280;2022-09-09T12:59:45;96417.19;;;16.68;45.86
52489;BME280;38399;52.236;104.280;2022-09-09T13:02:18;96424.88;;;16.45;46.86
52489;BME280;38399;52.236;104.280;2022-09-09T13:04:46;96456.84;;;16.34;48.75
52489;BME280;38399;52.236;104.280;2022-09-09T13:07:13;96484.94;;;16.09;49.72
52489;BME280;38399;52.236;104.280;2022-09-09T13:09:42;96489.53;;;15.87;50.73
52489;BME280;38399;52.236;104.280;2022-09-09T13:12:15;96502.78;;;15.68;51.44
52489;BME280;38399;52.236;104.280;2022-09-09T13:14:45;96508.19;;;15.53;52.27
52489;BME280;38399;52.236;104.280;2022-09-09T13:17:21;96510.03;;;15.42;52.64
52489;BME280;38399;52.236;104.280;2022-09-09T13:19:49;96497.69;;;15.34;52.48
52489;BME280;38399;52.236;104.280;2022-09-09T13:25:02;96496.47;;;15.20;52.81
52489;BME280;38399;52.236;104.280;2022-09-09T13:27:33;96489.03;;;15.10;52.56
52489;BME280;38399;52.236;104.280;2022-09-09T13:30:00;96501.31;;;15.07;52.75
52489;BME280;38399;52.236;104.280;2022-09-09T13:32:27;96499.63;;;15.01;52.70
52489;BME280;38399;52.236;104.280;2022-09-09T13:34:59;96514.88;;;14.97;52.94
52489;BME280;38399;52.236;104.280;2022-09-09T13:37:37;96509.13;;;14.93;52.96
52489;BME280;38399;52.236;104.280;2022-09-09T13:40:05;96498.16;;;14.88;53.24
52489;BME280;38399;52.236;104.280;2022-09-09T13:42:34;96501.72;;;14.89;53.40
52489;BME280;38399;52.236;104.280;2022-09-09T13:45:04;96501.72;;;14.89;53.60
52489;BME280;38399;52.236;104.280;2022-09-09T13:47:31;96502.81;;;14.93;52.68
52489;BME280;38399;52.236;104.280;2022-09-09T13:50:20;96508.50;;;14.86;53.51
52489;BME280;38399;52.236;104.280;2022-09-09T13:52:47;96515.28;;;14.78;53.94
52489;BME280;38399;52.236;104.280;2022-09-09T13:55:16;96506.22;;;14.73;54.24
52489;BME280;38399;52.236;104.280;2022-09-09T13:57:58;96495.47;;;14.66;54.12
52489;BME280;38399;52.236;104.280;2022-09-09T14:00:29;96484.50;;;14.61;54.62
52489;BME280;38399;52.236;104.280;2022-09-09T14:02:55;96488.31;;;14.60;54.63
52489;BME280;38399;52.236;104.280;2022-09-09T14:05:22;96492.13;;;14.59;54.88
52489;BME280;38399;52.236;104.280;2022-09-09T14:07:49;96487.75;;;14.58;54.67
52489;BME280;38399;52.236;104.280;2022-09-09T14:10:16;96488.31;;;14.60;54.70
52489;BME280;38399;52.236;104.280;2022-09-09T14:12:42;96498.72;;;14.63;54.98
52489;BME280;38399;52.236;104.280;2022-09-09T14:15:10;96503.34;;;14.62;55.14
52489;BME280;38399;52.236;104.280;2022-09-09T14:17:37;96505.25;;;14.62;54.93
52489;BME280;38399;52.236;104.280;2022-09-09T14:20:06;96507.94;;;14.57;55.20
52489;BME280;38399;52.236;104.280;2022-09-09T14:22:36;96505.72;;;14.54;55.18
52489;BME280;38399;52.236;104.280;2022-09-09T14:25:03;96515.50;;;14.50;55.11
52489;BME280;38399;52.236;104.280;2022-09-09T14:27:30;96523.63;;;14.44;54.84
52489;BME280;38399;52.236;104.280;2022-09-09T14:29:56;96538.81;;;14.35;54.82
52489;BME280;38399;52.236;104.280;2022-09-09T14:32:23;96543.38;;;14.29;55.01
52489;BME280;38399;52.236;104.280;2022-09-09T14:34:49;96552.91;;;14.27;55.26
52489;BME280;38399;52.236;104.280;2022-09-09T14:37:16;96560.69;;;14.18;54.92
52489;BME280;38399;52.236;104.280;2022-09-09T14:39:43;96566.69;;;14.15;54.95
52489;BME280;38399;52.236;104.280;2022-09-09T14:42:14;96573.13;;;14.09;55.21
52489;BME280;38399;52.236;104.280;2022-09-09T14:44:40;96569.00;;;14.06;54.94
52489;BME280;38399;52.236;104.280;2022-09-09T14:47:07;96576.59;;;14.04;55.20
52489;BME280;38399;52.236;104.280;2022-09-09T14:49:34;96581.69;;;13.95;55.42
52489;BME280;38399;52.236;104.280;2022-09-09T14:52:02;96583.53;;;13.90;55.65
52489;BME280;38399;52.236;104.280;2022-09-09T14:54:28;96587.63;;;13.92;55.15